Time;durP1;ratioP1;P1;durP2;ratioP2;P2;SDS_P1;SDS_P2;PMS_P1;PMS_P2;Temp;Humidity;BMP_temperature;BMP_pressure;BME280_temperature;BME280_humidity;BME280_pressure;Samples;Min_cycle;Max_cycle;Signal;HPM_P1;HPM_P2
2020/12/07 00:02:00;;;;;;;21.80;16.90;;;;;;;;;;5073919;28;20846;-77
2020/12/07 00:04:26;;;;;;;19.60;16.15;;;;;;;;;;5073790;28;20358;-77
2020/12/07 00:06:53;;;;;;;19.92;16.13;;;;;;;;;;5056127;28;20362;-78
2020/12/07 00:09:19;;;;;;;19.70;16.33;;;;;;;;;;5055519;28;20789;-78
2020/12/07 00:11:49;;;;;;;19.85;15.77;;;;;;;;;;5055748;28;20366;-77
2020/12/07 00:14:15;;;;;;;20.67;16.15;;;;;;;;;;5055510;28;20371;-77
2020/12/07 00:16:45;;;;;;;19.67;16.30;;;;;;;;;;5055526;28;20374;-77
2020/12/07 00:19:11;;;;;;;20.10;16.55;;;;;;;;;;5073370;28;20441;-77
2020/12/07 00:21:37;;;;;;;21.30;16.45;;;;;;;;;;5055627;28;20366;-78
2020/12/07 00:24:04;;;;;;;21.17;17.02;;;;;;;;;;5054800;28;20365;-76
2020/12/07 00:26:30;;;;;;;21.10;17.43;;;;;;;;;;5073351;28;20394;-76
2020/12/07 00:28:58;;;;;;;21.13;16.77;;;;;;;;;;5073439;28;20369;-77
2020/12/07 00:31:25;;;;;;;20.98;17.38;;;;;;;;;;5055113;28;20373;-77
2020/12/07 00:33:51;;;;;;;19.85;17.10;;;;;;;;;;5055664;28;20778;-77
2020/12/07 00:36:17;;;;;;;22.70;18.23;;;;;;;;;;5073243;28;20403;-77
2020/12/07 00:38:43;;;;;;;23.15;18.77;;;;;;;;;;5073281;28;20362;-77
2020/12/07 00:41:09;;;;;;;25.25;19.35;;;;;;;;;;5055090;28;20367;-77
2020/12/07 00:43:35;;;;;;;23.40;19.00;;;;;;;;;;5054937;28;20370;-79
2020/12/07 00:46:01;;;;;;;23.45;19.08;;;;;;;;;;5055057;28;20447;-77
2020/12/07 00:48:27;;;;;;;25.73;20.17;;;;;;;;;;5073102;28;20865;-77
2020/12/07 00:50:53;;;;;;;23.43;19.73;;;;;;;;;;5072904;28;20377;-77
2020/12/07 00:53:19;;;;;;;22.87;19.57;;;;;;;;;;5055070;28;20366;-76
2020/12/07 00:55:45;;;;;;;25.55;20.23;;;;;;;;;;5072943;28;20393;-77
2020/12/07 00:58:11;;;;;;;24.50;20.00;;;;;;;;;;5072956;28;20392;-77
2020/12/07 01:00:37;;;;;;;25.63;19.48;;;;;;;;;;5054543;28;20370;-77
2020/12/07 01:03:03;;;;;;;25.20;19.65;;;;;;;;;;5073718;28;20357;-78
2020/12/07 01:05:29;;;;;;;24.30;19.67;;;;;;;;;;5055107;28;20386;-77
2020/12/07 01:07:55;;;;;;;23.23;18.73;;;;;;;;;;5054872;28;20370;-77
2020/12/07 01:10:21;;;;;;;25.50;19.88;;;;;;;;;;5072551;28;20354;-78
2020/12/07 01:12:47;;;;;;;23.48;18.40;;;;;;;;;;5072546;28;20713;-78
2020/12/07 01:15:13;;;;;;;25.80;19.45;;;;;;;;;;5072583;28;20408;-78
2020/12/07 01:17:39;;;;;;;25.58;19.00;;;;;;;;;;5054672;28;20366;-77
2020/12/07 01:20:05;;;;;;;23.75;18.88;;;;;;;;;;5054683;28;20361;-77
2020/12/07 01:22:31;;;;;;;22.52;19.00;;;;;;;;;;5054562;28;20354;-78
2020/12/07 01:24:58;;;;;;;24.30;19.10;;;;;;;;;;5054490;28;20883;-77
2020/12/07 01:27:24;;;;;;;23.73;19.07;;;;;;;;;;5054309;28;20370;-76
2020/12/07 01:29:50;;;;;;;23.90;18.65;;;;;;;;;;5054042;28;20393;-77
2020/12/07 01:32:16;;;;;;;23.77;18.83;;;;;;;;;;5054244;28;20377;-79
2020/12/07 01:34:42;;;;;;;23.65;19.05;;;;;;;;;;5053538;28;20366;-78
2020/12/07 01:37:08;;;;;;;22.10;18.50;;;;;;;;;;5071973;28;20370;-78
2020/12/07 01:39:34;;;;;;;23.50;17.95;;;;;;;;;;5072135;28;20449;-78
2020/12/07 01:42:00;;;;;;;23.42;18.35;;;;;;;;;;5053904;28;20508;-77
2020/12/07 01:44:26;;;;;;;23.40;18.67;;;;;;;;;;5054320;28;20369;-77
2020/12/07 01:46:52;;;;;;;26.03;19.00;;;;;;;;;;5054233;28;20386;-77
2020/12/07 01:49:18;;;;;;;22.65;18.60;;;;;;;;;;5054197;28;20899;-77
2020/12/07 01:51:44;;;;;;;23.80;18.08;;;;;;;;;;5053990;28;20373;-79
2020/12/07 01:54:11;;;;;;;22.23;17.98;;;;;;;;;;5071720;28;20483;-77
2020/12/07 01:56:38;;;;;;;23.57;18.97;;;;;;;;;;5071821;28;20362;-77
2020/12/07 01:59:04;;;;;;;23.20;17.87;;;;;;;;;;5053668;28;20370;-77
2020/12/07 02:01:30;;;;;;;23.35;18.13;;;;;;;;;;5053628;28;20856;-77
2020/12/07 02:03:56;;;;;;;22.23;17.80;;;;;;;;;;5072393;28;20380;-77
2020/12/07 02:06:23;;;;;;;22.77;18.17;;;;;;;;;;5053847;28;20412;-77
2020/12/07 02:08:49;;;;;;;24.15;17.90;;;;;;;;;;5071274;28;20362;-78
2020/12/07 02:11:16;;;;;;;24.00;18.35;;;;;;;;;;5071055;28;20362;-78
2020/12/07 02:13:42;;;;;;;25.15;18.08;;;;;;;;;;5053540;28;20389;-77
2020/12/07 02:16:08;;;;;;;22.17;18.05;;;;;;;;;;5053715;28;20396;-77
2020/12/07 02:18:34;;;;;;;23.17;18.00;;;;;;;;;;5071815;28;20705;-77
2020/12/07 02:21:00;;;;;;;22.00;17.98;;;;;;;;;;5052898;28;20713;-77
2020/12/07 02:23:26;;;;;;;23.08;18.13;;;;;;;;;;5053382;28;20431;-77
2020/12/07 02:25:52;;;;;;;20.20;17.35;;;;;;;;;;5071094;28;20425;-78
2020/12/07 02:28:18;;;;;;;22.65;17.20;;;;;;;;;;5053442;28;20370;-78
2020/12/07 02:30:44;;;;;;;23.45;17.88;;;;;;;;;;5070946;28;20449;-77
2020/12/07 02:33:10;;;;;;;23.05;18.23;;;;;;;;;;5071165;28;20446;-77
2020/12/07 02:35:36;;;;;;;21.08;17.75;;;;;;;;;;5053157;28;20453;-78
2020/12/07 02:38:02;;;;;;;22.45;18.20;;;;;;;;;;5070957;28;20354;-78
2020/12/07 02:40:28;;;;;;;22.08;17.88;;;;;;;;;;5052839;28;20362;-79
2020/12/07 02:42:54;;;;;;;22.00;18.02;;;;;;;;;;5053040;28;20392;-78
2020/12/07 02:45:21;;;;;;;21.90;18.10;;;;;;;;;;5070851;28;20390;-77
2020/12/07 02:47:47;;;;;;;21.65;18.30;;;;;;;;;;5052701;28;20472;-78
2020/12/07 02:50:14;;;;;;;21.67;18.43;;;;;;;;;;5052990;28;20452;-78
2020/12/07 02:52:40;;;;;;;22.35;18.05;;;;;;;;;;5071287;28;20362;-78
2020/12/07 02:55:09;;;;;;;22.50;17.98;;;;;;;;;;5053214;28;20377;-77
2020/12/07 02:57:35;;;;;;;23.07;18.90;;;;;;;;;;5071588;28;20400;-77
2020/12/07 03:00:03;;;;;;;23.67;18.85;;;;;;;;;;5070939;28;20844;-77
2020/12/07 03:02:29;;;;;;;22.40;18.05;;;;;;;;;;5053064;28;21062;-77
2020/12/07 03:04:55;;;;;;;22.75;18.30;;;;;;;;;;5053297;28;20390;-78
2020/12/07 03:07:21;;;;;;;22.10;18.55;;;;;;;;;;5052831;28;20367;-78
2020/12/07 03:09:47;;;;;;;23.85;19.15;;;;;;;;;;5052531;28;20443;-78
2020/12/07 03:12:13;;;;;;;22.83;18.00;;;;;;;;;;5052708;28;20724;-77
2020/12/07 03:14:39;;;;;;;23.83;18.20;;;;;;;;;;5052702;28;20411;-77
2020/12/07 03:17:05;;;;;;;22.10;18.48;;;;;;;;;;5052660;28;20441;-77
2020/12/07 03:19:31;;;;;;;22.50;18.65;;;;;;;;;;5052413;28;20362;-77
2020/12/07 03:21:57;;;;;;;23.77;17.92;;;;;;;;;;5052457;28;20644;-77
2020/12/07 03:24:23;;;;;;;23.65;18.15;;;;;;;;;;5052945;28;20358;-77
2020/12/07 03:26:49;;;;;;;22.35;18.33;;;;;;;;;;5052571;28;20494;-78
2020/12/07 03:29:15;;;;;;;22.50;17.73;;;;;;;;;;5070285;28;20449;-78
2020/12/07 03:31:42;;;;;;;23.75;18.67;;;;;;;;;;5052410;28;21145;-77
2020/12/07 03:34:08;;;;;;;23.33;18.38;;;;;;;;;;5070235;28;20428;-77
2020/12/07 03:36:35;;;;;;;23.65;18.70;;;;;;;;;;5070670;28;20398;-77
2020/12/07 03:39:01;;;;;;;23.73;19.03;;;;;;;;;;5070325;28;20358;-77
2020/12/07 03:41:27;;;;;;;22.58;17.85;;;;;;;;;;5052553;28;20378;-77
2020/12/07 03:43:53;;;;;;;26.70;18.25;;;;;;;;;;5070632;28;20381;-78
2020/12/07 03:46:19;;;;;;;22.77;18.33;;;;;;;;;;5070112;28;20398;-77
2020/12/07 03:48:45;;;;;;;21.65;17.70;;;;;;;;;;5070405;28;20710;-77
2020/12/07 03:51:11;;;;;;;23.30;18.30;;;;;;;;;;5051919;28;20374;-77
2020/12/07 03:53:38;;;;;;;21.70;18.33;;;;;;;;;;5070450;28;20414;-78
2020/12/07 03:56:06;;;;;;;22.92;18.38;;;;;;;;;;5052435;28;20710;-77
2020/12/07 03:58:32;;;;;;;22.58;18.25;;;;;;;;;;5053198;28;20366;-77
2020/12/07 04:00:58;;;;;;;22.85;18.63;;;;;;;;;;5073643;28;20369;-77
2020/12/07 04:03:25;;;;;;;25.58;18.67;;;;;;;;;;5073855;28;20358;-77
2020/12/07 04:06:17;;;;;;;22.88;18.60;;;;;;;;;;5055299;28;20408;-77
2020/12/07 04:08:38;;;;;;;23.35;18.38;;;;;;;;;;5073019;28;20374;-77
2020/12/07 04:11:04;;;;;;;22.58;18.35;;;;;;;;;;5055678;28;20483;-77
2020/12/07 04:13:30;;;;;;;24.48;18.15;;;;;;;;;;5055630;28;20370;-77
2020/12/07 04:15:57;;;;;;;24.60;18.70;;;;;;;;;;5073653;28;20444;-79
2020/12/07 04:18:23;;;;;;;23.95;19.17;;;;;;;;;;5055202;28;20752;-78
2020/12/07 04:20:49;;;;;;;24.45;19.98;;;;;;;;;;5055311;28;20369;-78
2020/12/07 04:23:15;;;;;;;25.63;19.90;;;;;;;;;;5055825;28;20362;-78
2020/12/07 04:25:41;;;;;;;23.48;18.48;;;;;;;;;;5055477;28;20386;-77
2020/12/07 04:28:07;;;;;;;21.60;17.50;;;;;;;;;;5073639;28;20373;-79
2020/12/07 04:30:33;;;;;;;22.55;18.23;;;;;;;;;;5073328;28;20358;-77
2020/12/07 04:32:59;;;;;;;22.17;18.70;;;;;;;;;;5055316;28;20370;-76
2020/12/07 04:35:25;;;;;;;24.70;18.60;;;;;;;;;;5055353;28;20382;-78
2020/12/07 04:37:51;;;;;;;23.58;18.38;;;;;;;;;;5073336;28;20408;-79
2020/12/07 04:40:17;;;;;;;23.40;18.30;;;;;;;;;;5072851;28;20355;-78
2020/12/07 04:42:43;;;;;;;26.03;19.07;;;;;;;;;;5055509;28;20359;-78
2020/12/07 04:45:09;;;;;;;24.35;19.17;;;;;;;;;;5073325;28;20390;-77
2020/12/07 04:47:37;;;;;;;24.92;18.85;;;;;;;;;;5055868;28;20445;-77
2020/12/07 04:50:05;;;;;;;23.63;19.00;;;;;;;;;;5055343;28;20370;-77
2020/12/07 04:52:32;;;;;;;26.15;18.52;;;;;;;;;;5073427;28;20346;-78
2020/12/07 04:54:59;;;;;;;23.05;18.10;;;;;;;;;;5072988;28;20716;-78
2020/12/07 04:57:25;;;;;;;25.23;19.98;;;;;;;;;;5054959;28;20435;-80
2020/12/07 04:59:52;;;;;;;22.23;18.25;;;;;;;;;;5072912;28;20724;-78
2020/12/07 05:02:18;;;;;;;24.17;19.00;;;;;;;;;;5073399;28;20361;-77
2020/12/07 05:04:45;;;;;;;22.05;19.08;;;;;;;;;;5054915;28;20381;-78
2020/12/07 05:07:11;;;;;;;23.30;19.35;;;;;;;;;;5073038;28;20362;-78
2020/12/07 05:09:38;;;;;;;25.02;19.17;;;;;;;;;;5054762;28;20366;-80
2020/12/07 05:12:12;;;;;;;24.40;18.92;;;;;;;;;;5073014;28;20729;-78
2020/12/07 05:14:38;;;;;;;27.65;20.25;;;;;;;;;;5054541;28;20400;-78
2020/12/07 05:17:04;;;;;;;24.65;19.25;;;;;;;;;;5054638;28;20358;-78
2020/12/07 05:19:31;;;;;;;27.13;19.50;;;;;;;;;;5072489;28;20365;-79
2020/12/07 05:21:57;;;;;;;26.63;19.88;;;;;;;;;;5061904;28;20366;-78
2020/12/07 05:24:25;;;;;;;25.70;19.05;;;;;;;;;;5072661;28;20370;-79
2020/12/07 05:26:51;;;;;;;24.10;18.70;;;;;;;;;;5072997;28;20382;-77
2020/12/07 05:29:29;;;;;;;23.63;18.45;;;;;;;;;;5055214;28;20680;-77
2020/12/07 05:31:56;;;;;;;22.38;18.20;;;;;;;;;;5055049;28;20422;-77
2020/12/07 05:34:25;;;;;;;23.15;18.27;;;;;;;;;;5072733;28;20833;-78
2020/12/07 05:36:57;;;;;;;24.50;18.80;;;;;;;;;;5073602;28;20381;-82
2020/12/07 05:39:25;;;;;;;24.55;18.88;;;;;;;;;;5057720;28;20367;-78
2020/12/07 05:41:52;;;;;;;22.67;17.95;;;;;;;;;;5056196;28;20717;-79
2020/12/07 05:44:20;;;;;;;24.55;17.98;;;;;;;;;;5062074;28;20376;-81
2020/12/07 05:46:47;;;;;;;25.45;19.52;;;;;;;;;;5054051;28;20457;-83
2020/12/07 05:49:18;;;;;;;23.30;19.08;;;;;;;;;;5039113;28;20370;-79
2020/12/07 05:51:47;;;;;;;23.17;18.52;;;;;;;;;;5060926;28;20380;-81
2020/12/07 05:54:14;;;;;;;22.77;18.02;;;;;;;;;;5054595;28;20370;-82
2020/12/07 05:56:42;;;;;;;22.80;18.20;;;;;;;;;;5054652;28;20409;-79
2020/12/07 05:59:20;;;;;;;22.67;17.97;;;;;;;;;;5073025;28;20495;-80
2020/12/07 06:01:47;;;;;;;22.70;18.77;;;;;;;;;;5072723;28;20443;-78
2020/12/07 06:04:15;;;;;;;23.45;18.67;;;;;;;;;;5072486;28;20473;-79
2020/12/07 06:06:43;;;;;;;22.60;17.92;;;;;;;;;;5073042;28;20386;-78
2020/12/07 06:09:12;;;;;;;23.02;18.63;;;;;;;;;;5055552;28;20765;-80
2020/12/07 06:11:50;;;;;;;22.40;18.15;;;;;;;;;;5054898;28;20409;-77
2020/12/07 06:14:16;;;;;;;22.83;17.95;;;;;;;;;;5051987;28;20444;-82
2020/12/07 06:16:43;;;;;;;22.85;18.38;;;;;;;;;;5042520;28;20386;-78
2020/12/07 06:19:16;;;;;;;24.30;18.58;;;;;;;;;;5049102;28;20848;-80
2020/12/07 06:21:48;;;;;;;20.50;16.73;;;;;;;;;;5070297;28;20368;-79
2020/12/07 06:24:14;;;;;;;23.95;18.52;;;;;;;;;;5070196;28;20384;-78
2020/12/07 06:26:40;;;;;;;22.08;18.13;;;;;;;;;;5067997;28;20417;-78
2020/12/07 06:29:06;;;;;;;22.55;17.98;;;;;;;;;;5068460;28;20397;-78
2020/12/07 06:31:36;;;;;;;22.52;17.83;;;;;;;;;;5069382;28;20390;-80
2020/12/07 06:34:09;;;;;;;24.17;18.98;;;;;;;;;;5068629;28;20376;-77
2020/12/07 06:36:37;;;;;;;24.15;19.45;;;;;;;;;;5069912;28;20370;-78
2020/12/07 06:39:07;;;;;;;24.48;19.58;;;;;;;;;;5070828;28;20396;-78
2020/12/07 06:41:37;;;;;;;23.08;19.00;;;;;;;;;;5070131;28;20761;-78
2020/12/07 06:44:11;;;;;;;23.40;19.15;;;;;;;;;;5069462;28;20894;-78
2020/12/07 06:46:49;;;;;;;22.92;19.33;;;;;;;;;;5070888;28;20408;-77
2020/12/07 06:49:16;;;;;;;24.92;19.40;;;;;;;;;;5070716;28;20869;-79
2020/12/07 06:51:44;;;;;;;23.88;18.45;;;;;;;;;;5071326;28;20350;-78
2020/12/07 06:55:03;;;;;;;23.47;19.13;;;;;;;;;;5070938;28;20355;-78
2020/12/07 06:57:19;;;;;;;23.35;19.50;;;;;;;;;;5070648;28;20374;-78
2020/12/07 06:59:52;;;;;;;24.88;19.30;;;;;;;;;;5070587;28;20350;-78
2020/12/07 07:02:18;;;;;;;26.05;19.98;;;;;;;;;;5069543;28;20358;-78
2020/12/07 07:04:50;;;;;;;26.30;20.73;;;;;;;;;;5070529;28;20369;-77
2020/12/07 07:07:23;;;;;;;25.40;20.48;;;;;;;;;;5069475;28;20366;-77
2020/12/07 07:09:50;;;;;;;24.58;19.48;;;;;;;;;;5071072;28;20444;-78
2020/12/07 07:12:16;;;;;;;26.23;19.67;;;;;;;;;;5070926;28;20366;-79
2020/12/07 07:14:43;;;;;;;26.30;20.90;;;;;;;;;;5070634;28;20358;-78
2020/12/07 07:17:09;;;;;;;24.30;19.98;;;;;;;;;;5069338;28;20370;-78
2020/12/07 07:19:36;;;;;;;24.02;20.40;;;;;;;;;;5070378;28;20362;-78
2020/12/07 07:22:02;;;;;;;25.00;20.13;;;;;;;;;;5069198;28;20449;-78
2020/12/07 07:24:37;;;;;;;24.80;19.95;;;;;;;;;;5069374;28;20373;-78
2020/12/07 07:27:56;;;;;;;26.30;20.40;;;;;;;;;;5069138;28;20382;-78
2020/12/07 07:29:50;;;;;;;28.08;20.65;;;;;;;;;;5070049;28;20393;-78
2020/12/07 07:32:16;;;;;;;26.67;20.73;;;;;;;;;;5071403;28;20366;-77
2020/12/07 07:34:43;;;;;;;23.88;19.20;;;;;;;;;;5075144;28;20825;-78
2020/12/07 07:37:09;;;;;;;26.67;21.20;;;;;;;;;;5073724;28;20377;-78
2020/12/07 07:39:35;;;;;;;26.55;20.65;;;;;;;;;;5075228;28;20358;-78
2020/12/07 07:42:09;;;;;;;24.70;21.08;;;;;;;;;;5073805;28;20371;-78
2020/12/07 07:44:35;;;;;;;25.87;20.93;;;;;;;;;;5074024;28;20443;-78
2020/12/07 07:47:05;;;;;;;24.67;20.20;;;;;;;;;;5074703;28;20390;-77
2020/12/07 07:49:49;;;;;;;25.38;20.23;;;;;;;;;;5073135;28;20388;-78
2020/12/07 07:52:49;;;;;;;25.10;20.52;;;;;;;;;;5072805;28;20397;-78
2020/12/07 07:58:16;;;;;;;26.38;21.63;;;;;;;;;;5074572;28;20763;-78
2020/12/07 08:06:14;;;;;;;25.88;21.00;;;;;;;;;;5030081;28;20458;-78
2020/12/07 08:12:46;;;;;;;27.63;21.60;;;;;;;;;;5074199;28;20425;-78
2020/12/07 08:17:54;;;;;;;26.90;20.55;;;;;;;;;;5074981;28;20361;-77
2020/12/07 08:20:24;;;;;;;27.23;20.48;;;;;;;;;;5073437;28;20373;-77
2020/12/07 08:22:57;;;;;;;26.55;21.20;;;;;;;;;;5073365;28;20450;-78
2020/12/07 08:25:43;;;;;;;25.90;21.20;;;;;;;;;;5073291;28;20393;-77
2020/12/07 08:28:21;;;;;;;24.45;19.73;;;;;;;;;;5061843;28;20389;-79
2020/12/07 08:31:00;;;;;;;25.08;20.40;;;;;;;;;;5052727;28;20448;-83
2020/12/07 08:33:26;;;;;;;25.73;20.97;;;;;;;;;;5053208;28;20348;-77
2020/12/07 08:35:53;;;;;;;25.20;20.95;;;;;;;;;;5055655;28;20409;-79
2020/12/07 08:38:31;;;;;;;27.80;21.42;;;;;;;;;;5055710;28;20386;-81
2020/12/07 08:41:24;;;;;;;25.58;20.70;;;;;;;;;;5071572;28;20780;-79
2020/12/07 08:43:51;;;;;;;27.42;21.25;;;;;;;;;;5071895;28;20382;-80
2020/12/07 08:46:19;;;;;;;24.85;20.20;;;;;;;;;;5074173;28;20422;-82
2020/12/07 08:48:45;;;;;;;25.08;20.42;;;;;;;;;;5075760;28;20404;-77
2020/12/07 08:51:11;;;;;;;25.50;21.15;;;;;;;;;;5075175;28;20358;-80
2020/12/07 08:53:38;;;;;;;24.48;20.85;;;;;;;;;;5074002;28;20362;-82
2020/12/07 08:56:05;;;;;;;25.60;20.48;;;;;;;;;;5057033;28;20374;-82
2020/12/07 08:58:31;;;;;;;26.30;22.52;;;;;;;;;;5057311;28;20402;-80
2020/12/07 09:00:59;;;;;;;25.95;20.60;;;;;;;;;;5060715;28;20371;-79
2020/12/07 09:03:25;;;;;;;26.02;20.85;;;;;;;;;;5037153;28;20376;-78
2020/12/07 09:05:51;;;;;;;25.92;20.13;;;;;;;;;;5051869;28;20770;-80
2020/12/07 09:08:17;;;;;;;25.65;20.73;;;;;;;;;;5074145;28;20354;-79
2020/12/07 09:10:43;;;;;;;24.20;19.75;;;;;;;;;;5072898;28;20717;-79
2020/12/07 09:13:09;;;;;;;26.08;20.15;;;;;;;;;;5055424;28;20370;-80
2020/12/07 09:15:35;;;;;;;25.25;20.52;;;;;;;;;;5061692;28;20378;-83
2020/12/07 09:18:01;;;;;;;26.83;20.25;;;;;;;;;;5035871;28;20372;-79
2020/12/07 09:20:27;;;;;;;24.13;19.95;;;;;;;;;;5064587;28;20370;-81
2020/12/07 09:22:53;;;;;;;25.27;19.60;;;;;;;;;;5074368;28;20855;-76
2020/12/07 09:25:19;;;;;;;25.10;19.60;;;;;;;;;;5069586;28;20403;-79
2020/12/07 09:27:45;;;;;;;22.88;19.75;;;;;;;;;;5038899;28;20376;-81
2020/12/07 09:30:11;;;;;;;25.48;20.08;;;;;;;;;;5037938;28;20364;-79
2020/12/07 09:32:37;;;;;;;25.55;19.60;;;;;;;;;;5054661;28;20352;-81
2020/12/07 09:35:04;;;;;;;26.65;20.13;;;;;;;;;;5045212;28;20408;-81
2020/12/07 09:37:29;;;;;;;28.15;19.98;;;;;;;;;;5073606;28;20355;-80
2020/12/07 09:39:56;;;;;;;25.90;19.85;;;;;;;;;;5066452;28;20376;-80
2020/12/07 09:42:22;;;;;;;26.08;19.58;;;;;;;;;;5055153;28;20378;-81
2020/12/07 09:44:48;;;;;;;23.60;19.43;;;;;;;;;;5041711;28;20390;-78
2020/12/07 09:47:14;;;;;;;25.02;19.80;;;;;;;;;;5036423;28;20447;-78
2020/12/07 09:49:40;;;;;;;26.17;19.88;;;;;;;;;;5035701;28;20803;-77
2020/12/07 09:52:06;;;;;;;24.52;19.60;;;;;;;;;;5036537;28;20900;-79
2020/12/07 09:54:37;;;;;;;24.92;19.83;;;;;;;;;;5054744;28;20380;-78
2020/12/07 09:57:03;;;;;;;25.00;19.45;;;;;;;;;;5035789;28;20411;-79
2020/12/07 09:59:30;;;;;;;26.75;19.80;;;;;;;;;;5052885;28;20364;-79
2020/12/07 10:01:56;;;;;;;23.55;19.55;;;;;;;;;;5053366;28;20447;-79
2020/12/07 10:04:22;;;;;;;25.83;20.40;;;;;;;;;;5053726;28;20404;-80
2020/12/07 10:06:48;;;;;;;25.35;19.55;;;;;;;;;;5053262;28;20395;-79
2020/12/07 10:09:13;;;;;;;26.95;19.88;;;;;;;;;;5034450;28;20363;-84
2020/12/07 10:11:39;;;;;;;24.65;19.60;;;;;;;;;;5054455;28;20370;-78
2020/12/07 10:14:05;;;;;;;25.53;21.17;;;;;;;;;;5055597;28;20366;-79
2020/12/07 10:16:32;;;;;;;25.35;19.85;;;;;;;;;;5036545;28;20438;-79
2020/12/07 10:18:58;;;;;;;25.10;20.45;;;;;;;;;;5053284;28;20359;-81
2020/12/07 10:21:27;;;;;;;24.70;19.27;;;;;;;;;;5073781;28;20358;-79
2020/12/07 10:23:53;;;;;;;25.65;19.88;;;;;;;;;;5055288;28;20378;-79
2020/12/07 10:26:25;;;;;;;23.42;19.55;;;;;;;;;;5055264;28;20975;-78
2020/12/07 10:28:52;;;;;;;23.35;19.58;;;;;;;;;;5055020;28;20857;-79
2020/12/07 10:31:19;;;;;;;25.35;20.15;;;;;;;;;;5070690;28;20365;-79
2020/12/07 10:33:45;;;;;;;24.77;20.13;;;;;;;;;;5072977;28;20856;-80
2020/12/07 10:36:11;;;;;;;24.30;19.80;;;;;;;;;;5037712;28;20384;-79
2020/12/07 10:38:37;;;;;;;24.75;19.92;;;;;;;;;;5035331;28;20403;-78
2020/12/07 10:41:03;;;;;;;23.92;19.90;;;;;;;;;;5050606;28;20378;-80
2020/12/07 10:43:30;;;;;;;24.42;20.65;;;;;;;;;;5055793;28;20442;-79
2020/12/07 10:45:56;;;;;;;25.05;20.95;;;;;;;;;;5055175;28;20400;-79
2020/12/07 10:48:22;;;;;;;24.48;20.17;;;;;;;;;;5072960;28;20374;-78
2020/12/07 10:50:48;;;;;;;23.95;20.40;;;;;;;;;;5041625;28;20876;-79
2020/12/07 10:53:14;;;;;;;24.17;20.80;;;;;;;;;;5034169;28;20851;-79
2020/12/07 10:55:41;;;;;;;25.80;20.65;;;;;;;;;;5064399;28;20374;-79
2020/12/07 10:58:07;;;;;;;23.73;19.60;;;;;;;;;;5037519;28;20376;-79
2020/12/07 11:00:33;;;;;;;23.73;19.38;;;;;;;;;;5061767;28;20366;-79
2020/12/07 11:02:59;;;;;;;24.00;19.88;;;;;;;;;;5054157;28;20848;-78
2020/12/07 11:05:25;;;;;;;27.02;21.30;;;;;;;;;;5067506;28;20872;-77
2020/12/07 11:07:53;;;;;;;26.13;20.23;;;;;;;;;;5072451;28;20428;-79
2020/12/07 11:10:20;;;;;;;25.00;20.42;;;;;;;;;;5044351;28;20398;-78
2020/12/07 11:12:51;;;;;;;24.65;19.35;;;;;;;;;;5059672;28;20372;-79
2020/12/07 11:15:18;;;;;;;22.37;19.50;;;;;;;;;;5079451;28;20354;-79
2020/12/07 11:18:00;;;;;;;25.05;20.25;;;;;;;;;;5078534;28;20373;-80
2020/12/07 11:20:26;;;;;;;23.65;19.85;;;;;;;;;;5058045;28;20746;-79
2020/12/07 11:22:56;;;;;;;26.48;20.80;;;;;;;;;;5045775;28;20937;-80
2020/12/07 11:25:24;;;;;;;26.38;20.30;;;;;;;;;;5058936;28;20385;-80
2020/12/07 11:27:52;;;;;;;24.98;20.60;;;;;;;;;;5062153;28;20367;-80
2020/12/07 11:30:18;;;;;;;26.13;20.95;;;;;;;;;;5053344;28;20725;-79
2020/12/07 11:32:44;;;;;;;26.10;21.05;;;;;;;;;;5081432;28;20369;-82
2020/12/07 11:35:10;;;;;;;25.27;20.55;;;;;;;;;;5080553;28;20354;-78
2020/12/07 11:37:38;;;;;;;24.77;20.67;;;;;;;;;;5079472;28;20468;-77
2020/12/07 11:40:14;;;;;;;26.23;21.17;;;;;;;;;;5078913;28;20405;-79
2020/12/07 11:45:07;;;;;;;26.37;21.20;;;;;;;;;;5069062;28;20387;-80
2020/12/07 11:47:32;;;;;;;24.60;21.55;;;;;;;;;;5041990;28;20375;-81
2020/12/07 11:49:59;;;;;;;26.38;20.83;;;;;;;;;;5059451;28;20371;-82
2020/12/07 11:52:25;;;;;;;25.98;21.38;;;;;;;;;;5048864;28;20382;-81
2020/12/07 11:54:51;;;;;;;27.33;21.80;;;;;;;;;;5072022;28;20429;-78
2020/12/07 11:57:17;;;;;;;25.40;20.80;;;;;;;;;;5042617;28;20360;-80
2020/12/07 11:59:43;;;;;;;26.13;21.87;;;;;;;;;;5040185;28;20387;-82
2020/12/07 12:02:09;;;;;;;27.07;21.67;;;;;;;;;;5041683;28;20714;-80
2020/12/07 12:04:35;;;;;;;24.85;21.35;;;;;;;;;;5060113;28;20424;-85
2020/12/07 12:07:01;;;;;;;25.65;20.85;;;;;;;;;;5060069;28;20387;-82
2020/12/07 12:09:28;;;;;;;26.52;21.10;;;;;;;;;;5060935;28;20443;-79
2020/12/07 12:11:54;;;;;;;25.13;20.75;;;;;;;;;;5059898;28;20360;-77
2020/12/07 12:14:20;;;;;;;26.77;21.07;;;;;;;;;;5059840;28;20355;-79
2020/12/07 12:16:47;;;;;;;25.52;20.65;;;;;;;;;;5040799;28;20384;-79
2020/12/07 12:19:14;;;;;;;26.70;21.10;;;;;;;;;;5038832;28;20367;-79
2020/12/07 12:21:40;;;;;;;28.60;20.90;;;;;;;;;;5056299;28;20854;-79
2020/12/07 12:24:06;;;;;;;26.87;21.20;;;;;;;;;;5056365;28;20739;-79
2020/12/07 12:26:33;;;;;;;25.80;20.77;;;;;;;;;;5037704;28;20400;-79
2020/12/07 12:28:59;;;;;;;25.30;21.35;;;;;;;;;;5055708;28;20858;-79
2020/12/07 12:31:26;;;;;;;27.70;21.50;;;;;;;;;;5037704;28;20433;-80
2020/12/07 12:33:53;;;;;;;25.55;21.90;;;;;;;;;;5038192;28;20371;-79
2020/12/07 12:36:20;;;;;;;28.45;22.10;;;;;;;;;;5037062;28;20410;-78
2020/12/07 12:38:47;;;;;;;26.57;20.60;;;;;;;;;;5054506;28;20361;-79
2020/12/07 12:41:13;;;;;;;26.02;21.35;;;;;;;;;;5036629;28;20364;-79
2020/12/07 12:43:39;;;;;;;27.70;21.33;;;;;;;;;;5054329;28;20710;-79
2020/12/07 12:46:06;;;;;;;23.77;20.63;;;;;;;;;;5054193;28;20403;-79
2020/12/07 12:48:32;;;;;;;23.85;20.60;;;;;;;;;;5036575;28;20858;-79
2020/12/07 12:50:58;;;;;;;25.35;19.98;;;;;;;;;;5054885;28;20414;-79
2020/12/07 12:53:24;;;;;;;23.17;19.67;;;;;;;;;;5055648;28;20375;-78
2020/12/07 12:55:51;;;;;;;25.20;20.60;;;;;;;;;;5037048;28;20372;-79
2020/12/07 12:58:17;;;;;;;27.88;21.33;;;;;;;;;;5055602;28;20364;-78
2020/12/07 13:00:45;;;;;;;24.17;21.00;;;;;;;;;;5036859;28;20368;-79
2020/12/07 13:03:12;;;;;;;23.23;20.13;;;;;;;;;;5037152;28;20364;-78
2020/12/07 13:05:38;;;;;;;27.48;20.77;;;;;;;;;;5054735;28;20388;-79
2020/12/07 13:08:04;;;;;;;25.38;20.90;;;;;;;;;;5036410;28;20417;-79
2020/12/07 13:10:30;;;;;;;26.50;20.08;;;;;;;;;;5060083;28;20875;-79
2020/12/07 13:12:56;;;;;;;25.60;21.42;;;;;;;;;;5074205;28;20439;-84
2020/12/07 13:15:24;;;;;;;25.20;20.55;;;;;;;;;;5074306;28;20354;-82
2020/12/07 13:17:56;;;;;;;20.33;16.50;;;;;;;;;;5056777;28;20358;-81
2020/12/07 13:20:29;;;;;;;18.77;16.15;;;;;;;;;;5074918;28;20381;-82
2020/12/07 13:23:04;;;;;;;18.05;15.65;;;;;;;;;;5060064;28;20408;-80
2020/12/07 13:25:46;;;;;;;19.70;16.00;;;;;;;;;;5079722;28;20926;-80
2020/12/07 13:28:14;;;;;;;17.55;15.32;;;;;;;;;;5076733;28;20412;-79
2020/12/07 13:30:41;;;;;;;17.25;15.30;;;;;;;;;;5074410;28;20840;-80
2020/12/07 13:33:09;;;;;;;18.02;14.80;;;;;;;;;;5047793;28;20375;-80
2020/12/07 13:35:35;;;;;;;18.30;15.07;;;;;;;;;;5047144;28;20375;-82
2020/12/07 13:38:02;;;;;;;16.55;14.13;;;;;;;;;;5065898;28;20374;-81
2020/12/07 13:40:28;;;;;;;16.45;12.00;;;;;;;;;;5049804;28;20366;-80
2020/12/07 13:42:54;;;;;;;11.30;10.10;;;;;;;;;;5064218;28;20366;-83
2020/12/07 13:45:20;;;;;;;11.27;9.15;;;;;;;;;;5050797;28;20405;-80
2020/12/07 13:47:46;;;;;;;9.30;8.00;;;;;;;;;;5059197;28;20476;-81
2020/12/07 13:50:12;;;;;;;8.00;7.18;;;;;;;;;;5068513;28;20426;-79
2020/12/07 13:52:39;;;;;;;7.82;6.53;;;;;;;;;;5054564;28;20436;-81
2020/12/07 13:55:05;;;;;;;7.90;6.70;;;;;;;;;;5067167;28;20377;-80
2020/12/07 13:57:31;;;;;;;6.85;6.20;;;;;;;;;;5041015;28;20934;-81
2020/12/07 13:59:57;;;;;;;7.13;6.38;;;;;;;;;;5034723;28;20399;-83
2020/12/07 14:02:23;;;;;;;7.25;5.55;;;;;;;;;;5061499;28;20363;-80
2020/12/07 14:04:59;;;;;;;5.93;4.70;;;;;;;;;;5060183;28;20419;-81
2020/12/07 14:07:30;;;;;;;6.43;4.47;;;;;;;;;;5063776;28;20386;-81
2020/12/07 14:09:57;;;;;;;4.80;4.30;;;;;;;;;;5066608;28;20374;-82
2020/12/07 14:12:23;;;;;;;5.43;4.30;;;;;;;;;;5054821;28;20374;-81
2020/12/07 14:14:49;;;;;;;6.63;4.32;;;;;;;;;;5073380;28;20377;-80
2020/12/07 14:17:18;;;;;;;5.63;4.38;;;;;;;;;;5066129;28;20374;-80
2020/12/07 14:22:37;;;;;;;4.63;4.15;;;;;;;;;;5062472;28;20358;-79
2020/12/07 14:27:51;;;;;;;5.10;4.60;;;;;;;;;;5065682;28;20400;-80
2020/12/07 14:41:34;;;;;;;6.00;5.07;;;;;;;;;;5062038;28;20423;-81
2020/12/07 14:44:00;;;;;;;6.78;5.00;;;;;;;;;;5037890;28;20407;-80
2020/12/07 14:46:29;;;;;;;6.50;5.20;;;;;;;;;;5053353;28;20400;-80
2020/12/07 14:48:56;;;;;;;7.40;5.20;;;;;;;;;;5044568;28;20433;-81
2020/12/07 14:53:48;;;;;;;8.20;5.93;;;;;;;;;;5065042;28;20380;-81
2020/12/07 14:56:26;;;;;;;6.00;5.40;;;;;;;;;;5044199;28;20728;-80
2020/12/07 15:14:58;;;;;;;6.00;5.40;;;;;;;;;;5071740;28;20435;-80